Time;durP1;ratioP1;P1;durP2;ratioP2;P2;SDS_P1;SDS_P2;PMS_P1;PMS_P2;Temp;Humidity;BMP_temperature;BMP_pressure;BME280_temperature;BME280_humidity;BME280_pressure;Samples;Min_cycle;Max_cycle;Signal;HPM_P1;HPM_P2
2021/07/10 00:00:20;;;;;;;20.60;10.18;;;;;;;20.16;100.00;101259.30;1683836;85;20962;-71
2021/07/10 00:02:46;;;;;;;19.70;10.03;;;;;;;20.17;100.00;101258.98;1682066;84;20876;-72
2021/07/10 00:05:16;;;;;;;23.85;9.50;;;;;;;20.19;100.00;101261.42;1675804;85;21038;-75
2021/07/10 00:07:43;;;;;;;20.70;9.70;;;;;;;20.19;100.00;101256.75;1678869;84;21276;-71
2021/07/10 00:10:14;;;;;;;26.80;10.05;;;;;;;20.22;100.00;101259.44;1659667;85;21030;-74
2021/07/10 00:12:40;;;;;;;24.85;10.35;;;;;;;20.23;100.00;101256.94;1678792;84;21536;-76
2021/07/10 00:15:10;;;;;;;19.85;9.78;;;;;;;20.26;100.00;101260.98;1678892;84;20975;-76
2021/07/10 00:17:37;;;;;;;17.45;9.18;;;;;;;20.29;100.00;101265.84;1678673;85;21027;-76
2021/07/10 00:20:09;;;;;;;22.15;9.23;;;;;;;20.30;100.00;101260.64;1678665;84;21090;-76
2021/07/10 00:22:36;;;;;;;20.43;9.55;;;;;;;20.31;100.00;101261.69;1678755;85;21113;-75
2021/07/10 00:25:10;;;;;;;22.93;9.78;;;;;;;20.34;100.00;101260.27;1678760;85;20991;-74
2021/07/10 00:27:37;;;;;;;19.50;9.15;;;;;;;20.36;100.00;101253.92;1678761;85;21542;-71
2021/07/10 00:30:05;;;;;;;19.45;9.83;;;;;;;20.36;100.00;101246.52;1678515;85;21486;-73
2021/07/10 00:32:32;;;;;;;17.30;9.08;;;;;;;20.36;100.00;101249.25;1678883;84;21133;-73
2021/07/10 00:34:57;;;;;;;20.57;10.18;;;;;;;20.37;100.00;101245.95;1659301;85;20999;-76
2021/07/10 00:37:23;;;;;;;24.65;10.30;;;;;;;20.37;100.00;101246.75;1678759;85;20994;-78
2021/07/10 00:39:49;;;;;;;20.23;9.58;;;;;;;20.38;100.00;101248.39;1678823;85;20880;-71
2021/07/10 00:42:19;;;;;;;20.40;9.50;;;;;;;20.40;100.00;101243.96;1678892;84;20967;-77
2021/07/10 00:44:44;;;;;;;20.65;9.58;;;;;;;20.41;100.00;101236.82;1678462;85;20999;-71
2021/07/10 00:47:10;;;;;;;17.70;8.30;;;;;;;20.42;100.00;101237.63;1678882;85;21031;-72
2021/07/10 00:49:37;;;;;;;21.15;9.55;;;;;;;20.43;100.00;101230.45;1678708;84;20970;-72
2021/07/10 00:52:04;;;;;;;25.20;9.53;;;;;;;20.45;100.00;101232.89;1626771;88;21006;-75
2021/07/10 00:54:32;;;;;;;20.60;9.20;;;;;;;20.47;100.00;101233.41;1631430;88;21029;-74
2021/07/10 00:57:00;;;;;;;21.37;9.23;;;;;;;20.47;100.00;101232.56;1631321;88;21201;-77
2021/07/10 00:59:32;;;;;;;17.25;8.63;;;;;;;20.48;100.00;101234.20;1631426;88;21018;-72
2021/07/10 01:01:57;;;;;;;20.95;9.45;;;;;;;20.47;100.00;101233.94;1631405;88;21098;-76
2021/07/10 01:04:24;;;;;;;18.60;9.75;;;;;;;20.49;100.00;101239.36;1631261;87;21013;-75
2021/07/10 01:06:50;;;;;;;26.93;9.80;;;;;;;20.50;100.00;101240.16;1631588;88;21109;-72
2021/07/10 01:09:16;;;;;;;20.97;9.65;;;;;;;20.52;100.00;101236.56;1631517;88;21104;-73
2021/07/10 01:11:45;;;;;;;16.52;9.00;;;;;;;20.51;100.00;101237.13;1631476;88;21061;-75
2021/07/10 01:14:11;;;;;;;18.02;9.33;;;;;;;20.53;100.00;101236.83;1631312;88;21161;-72
2021/07/10 01:16:38;;;;;;;17.70;9.23;;;;;;;20.50;100.00;101237.42;1631455;88;21524;-72
2021/07/10 01:19:04;;;;;;;21.50;10.30;;;;;;;20.47;100.00;101236.67;1631507;88;21118;-71
2021/07/10 01:21:31;;;;;;;20.62;9.65;;;;;;;20.42;100.00;101236.26;1631508;86;21093;-71
2021/07/10 01:23:57;;;;;;;21.02;9.48;;;;;;;20.39;100.00;101239.61;1631508;88;20933;-75
2021/07/10 01:26:23;;;;;;;16.50;8.50;;;;;;;20.36;100.00;101248.45;1631429;88;21030;-78
2021/07/10 01:28:49;;;;;;;20.90;9.35;;;;;;;20.32;100.00;101241.39;1631430;88;21044;-75
2021/07/10 01:31:18;;;;;;;22.27;10.28;;;;;;;20.27;100.00;101243.47;1631485;88;20875;-77
2021/07/10 01:33:44;;;;;;;24.82;10.60;;;;;;;20.15;100.00;101242.64;1631704;88;21922;-70
2021/07/10 01:36:10;;;;;;;18.80;9.65;;;;;;;20.02;100.00;101240.17;1631377;88;20958;-70
2021/07/10 01:38:36;;;;;;;18.80;10.13;;;;;;;19.95;100.00;101239.23;1631462;88;20910;-72
2021/07/10 01:41:02;;;;;;;20.20;9.85;;;;;;;19.93;100.00;101234.61;1631311;88;20950;-76
2021/07/10 01:43:28;;;;;;;17.55;8.73;;;;;;;19.92;100.00;101233.00;1631523;88;21061;-76
2021/07/10 01:45:54;;;;;;;18.00;9.65;;;;;;;19.86;100.00;101244.38;1631528;86;21099;-75
2021/07/10 01:48:20;;;;;;;21.77;9.80;;;;;;;19.80;100.00;101243.67;1643868;85;20951;-71
2021/07/10 01:50:49;;;;;;;18.73;9.10;;;;;;;19.71;100.00;101243.58;1659369;85;20864;-76
2021/07/10 01:53:17;;;;;;;19.17;9.33;;;;;;;19.65;100.00;101243.44;1678576;84;20995;-78
2021/07/10 01:55:43;;;;;;;20.57;8.38;;;;;;;19.56;100.00;101245.23;1678695;85;21050;-71
2021/07/10 01:58:09;;;;;;;18.15;8.75;;;;;;;19.52;100.00;101241.47;1678880;84;21124;-75
2021/07/10 02:00:43;;;;;;;20.88;9.35;;;;;;;19.49;100.00;101244.25;1678642;85;21487;-73
2021/07/10 02:03:11;;;;;;;18.40;8.65;;;;;;;19.45;100.00;101239.15;1678484;84;21614;-76
2021/07/10 02:05:37;;;;;;;19.35;9.70;;;;;;;19.49;100.00;101242.08;1678693;85;21066;-74
2021/07/10 02:08:04;;;;;;;17.10;8.25;;;;;;;19.51;100.00;101242.03;1678524;84;21030;-75
2021/07/10 02:10:33;;;;;;;19.62;9.53;;;;;;;19.51;100.00;101241.23;1678728;84;21104;-71
2021/07/10 02:13:07;;;;;;;21.80;9.23;;;;;;;19.51;100.00;101237.93;1678846;85;21043;-76
2021/07/10 02:15:33;;;;;;;22.45;10.13;;;;;;;19.48;100.00;101244.57;1650136;86;21108;-77
2021/07/10 02:17:59;;;;;;;18.07;9.35;;;;;;;19.51;100.00;101240.66;1650358;86;21048;-76
2021/07/10 02:20:27;;;;;;;19.05;9.63;;;;;;;19.52;100.00;101245.00;1650234;86;21012;-75
2021/07/10 02:22:55;;;;;;;17.37;8.58;;;;;;;19.53;100.00;101245.84;1650366;86;21705;-77
2021/07/10 02:25:24;;;;;;;16.40;9.25;;;;;;;19.58;100.00;101243.55;1650171;86;21055;-73
2021/07/10 02:27:51;;;;;;;18.95;9.33;;;;;;;19.60;100.00;101242.12;1650313;86;20984;-70
2021/07/10 02:30:22;;;;;;;22.02;9.30;;;;;;;19.66;100.00;101240.94;1650397;86;21107;-76
2021/07/10 02:32:49;;;;;;;20.55;9.30;;;;;;;19.73;100.00;101237.78;1650307;86;21040;-78
2021/07/10 02:35:16;;;;;;;19.15;8.73;;;;;;;19.81;100.00;101240.37;1650285;86;21134;-71
2021/07/10 02:37:44;;;;;;;28.23;9.85;;;;;;;19.94;100.00;101234.89;1650364;86;20948;-72
2021/07/10 02:40:12;;;;;;;21.50;10.25;;;;;;;20.04;100.00;101238.52;1650286;85;21075;-71
2021/07/10 02:42:39;;;;;;;21.00;10.05;;;;;;;20.12;100.00;101241.33;1650123;86;21043;-75
2021/07/10 02:45:08;;;;;;;22.95;10.03;;;;;;;20.21;100.00;101235.93;1650396;86;21055;-72
2021/07/10 02:47:34;;;;;;;24.67;11.28;;;;;;;20.33;100.00;101232.64;1650381;85;21032;-71
2021/07/10 02:49:59;;;;;;;26.85;11.22;;;;;;;20.49;100.00;101233.88;1650499;86;21200;-73
2021/07/10 02:52:26;;;;;;;24.35;11.57;;;;;;;20.68;100.00;101238.38;1650277;86;20937;-71
2021/07/10 02:54:51;;;;;;;29.65;12.45;;;;;;;20.91;100.00;101236.44;1650358;86;21648;-73
2021/07/10 02:57:18;;;;;;;26.97;12.07;;;;;;;21.17;100.00;101231.09;1650379;86;20881;-74
2021/07/10 02:59:45;;;;;;;32.17;12.85;;;;;;;21.42;100.00;101220.83;1650142;86;21065;-72
2021/07/10 03:02:11;;;;;;;25.20;11.25;;;;;;;21.59;100.00;101228.30;1650013;86;21071;-71
2021/07/10 03:04:38;;;;;;;27.27;11.75;;;;;;;21.72;100.00;101224.61;1655394;86;21409;-76
2021/07/10 03:07:05;;;;;;;26.95;11.78;;;;;;;21.87;100.00;101227.46;1657627;86;21063;-77
2021/07/10 03:09:31;;;;;;;21.82;11.03;;;;;;;22.00;100.00;101225.69;1657811;86;20987;-71
2021/07/10 03:11:56;;;;;;;22.50;10.75;;;;;;;22.10;100.00;101219.90;1667623;85;21958;-70
2021/07/10 03:14:23;;;;;;;21.85;10.80;;;;;;;22.17;100.00;101220.23;1688409;85;20883;-75
2021/07/10 03:16:48;;;;;;;29.35;11.12;;;;;;;22.29;100.00;101218.79;1688402;85;21554;-76
2021/07/10 03:19:14;;;;;;;18.12;10.48;;;;;;;22.43;100.00;101219.43;1688604;84;21556;-71
2021/07/10 03:21:42;;;;;;;19.52;10.00;;;;;;;22.64;100.00;101218.19;1688393;85;20895;-72
2021/07/10 03:24:08;;;;;;;22.60;10.43;;;;;;;22.93;100.00;101216.67;1688351;85;21327;-79
2021/07/10 03:26:34;;;;;;;20.85;9.83;;;;;;;23.42;100.00;101216.58;1688545;85;21016;-76
2021/07/10 03:29:00;;;;;;;22.93;10.43;;;;;;;23.91;100.00;101214.18;1660950;85;20959;-73
2021/07/10 03:31:26;;;;;;;16.80;9.60;;;;;;;24.43;100.00;101220.67;1688358;85;20879;-77
2021/07/10 03:33:52;;;;;;;23.07;10.20;;;;;;;24.87;100.00;101223.80;1688667;85;20986;-75
2021/07/10 03:36:17;;;;;;;17.25;9.40;;;;;;;25.30;100.00;101225.27;1688539;84;20989;-71
2021/07/10 03:41:14;;;;;;;19.80;10.03;;;;;;;26.16;100.00;101217.45;1660298;86;32505;-76
2021/07/10 03:43:41;;;;;;;24.43;9.75;;;;;;;26.57;100.00;101213.50;1660486;86;21567;-71
2021/07/10 03:46:07;;;;;;;17.15;9.38;;;;;;;26.89;100.00;101210.79;1638133;86;21080;-76
2021/07/10 03:48:34;;;;;;;18.55;9.00;;;;;;;27.18;100.00;101217.30;1637895;86;21651;-71
2021/07/10 03:51:01;;;;;;;17.23;9.98;;;;;;;27.61;100.00;101207.21;1660242;86;21641;-72
2021/07/10 03:53:27;;;;;;;16.25;9.40;;;;;;;28.08;100.00;101213.80;1660746;86;21062;-75
2021/07/10 03:55:53;;;;;;;16.52;10.15;;;;;;;28.37;100.00;101219.92;1660830;86;21594;-78
2021/07/10 03:58:19;;;;;;;16.05;9.60;;;;;;;28.63;100.00;101215.91;1660755;86;21503;-77
2021/07/10 04:00:45;;;;;;;19.40;9.58;;;;;;;29.01;100.00;101215.58;1660745;86;21176;-77
2021/07/10 04:03:10;;;;;;;18.87;9.23;;;;;;;29.21;100.00;101210.80;1660657;86;20891;-75
2021/07/10 04:05:37;;;;;;;17.52;10.32;;;;;;;29.45;100.00;101212.34;1662749;86;20966;-79
2021/07/10 04:08:03;;;;;;;16.62;9.33;;;;;;;29.81;100.00;101211.49;1662811;86;21062;-75
2021/07/10 04:10:29;;;;;;;16.87;9.03;;;;;;;30.03;99.82;101219.50;1662887;86;21106;-77
2021/07/10 04:12:55;;;;;;;18.20;9.15;;;;;;;30.17;95.52;101214.72;1640508;86;21141;-76
2021/07/10 04:15:22;;;;;;;16.62;9.70;;;;;;;30.45;94.45;101212.91;1659143;86;21571;-74
2021/07/10 04:17:49;;;;;;;15.23;9.23;;;;;;;30.63;91.65;101215.87;1662755;86;21054;-77
2021/07/10 04:20:17;;;;;;;19.32;10.03;;;;;;;30.96;86.94;101208.05;1663236;86;21074;-76
2021/07/10 04:22:43;;;;;;;15.45;9.50;;;;;;;31.33;82.11;101211.33;1663156;86;21054;-76
2021/07/10 04:25:16;;;;;;;14.28;8.75;;;;;;;31.48;81.21;101215.05;1662831;86;21865;-76
2021/07/10 04:27:44;;;;;;;18.42;10.05;;;;;;;31.77;77.12;101211.23;1662728;86;21669;-77
2021/07/10 04:30:12;;;;;;;19.62;9.43;;;;;;;31.95;74.72;101208.55;1662795;86;21522;-76
2021/07/10 04:32:38;;;;;;;13.53;9.08;;;;;;;32.24;75.94;101208.08;1662822;86;21337;-77
2021/07/10 04:35:05;;;;;;;16.48;9.28;;;;;;;32.70;73.51;101206.59;1663081;86;21032;-76
2021/07/10 04:37:32;;;;;;;17.17;9.25;;;;;;;33.06;67.15;101212.22;1670204;85;21170;-73
2021/07/10 04:39:58;;;;;;;17.25;8.95;;;;;;;33.18;68.58;101213.20;1688265;83;21555;-77
2021/07/10 04:42:24;;;;;;;18.37;9.40;;;;;;;33.52;63.86;101212.20;1688508;85;21013;-79
2021/07/10 04:44:52;;;;;;;15.15;9.20;;;;;;;33.87;62.61;101213.30;1688064;85;21041;-79
2021/07/10 04:47:18;;;;;;;13.93;8.93;;;;;;;34.13;58.73;101219.81;1688242;84;21050;-75
2021/07/10 04:49:44;;;;;;;17.10;9.33;;;;;;;34.40;57.12;101210.87;1688373;84;21956;-80
2021/07/10 04:52:10;;;;;;;14.83;9.00;;;;;;;34.53;56.23;101211.17;1688175;85;20958;-77
2021/07/10 04:54:36;;;;;;;13.55;8.90;;;;;;;34.76;55.94;101208.64;1688341;85;21006;-72
2021/07/10 04:57:03;;;;;;;19.00;8.93;;;;;;;35.17;55.15;101209.33;1688286;85;20998;-77
2021/07/10 04:59:29;;;;;;;15.53;8.58;;;;;;;35.73;53.84;101206.98;1688382;85;20990;-76
2021/07/10 05:01:55;;;;;;;11.97;7.78;;;;;;;35.97;50.43;101208.67;1688541;84;21088;-77
2021/07/10 05:04:20;;;;;;;16.15;9.03;;;;;;;36.09;51.20;101206.77;1684262;84;21656;-72
2021/07/10 05:06:47;;;;;;;12.53;8.10;;;;;;;36.24;47.29;101208.77;1678843;85;20868;-77
2021/07/10 05:09:12;;;;;;;14.55;7.75;;;;;;;36.24;49.40;101207.37;1678772;85;20991;-76
2021/07/10 05:11:38;;;;;;;12.05;7.70;;;;;;;36.53;47.81;101210.59;1678816;85;21620;-79
2021/07/10 05:14:04;;;;;;;12.80;8.15;;;;;;;36.65;47.86;101210.61;1678865;84;21096;-77
2021/07/10 05:16:30;;;;;;;11.08;7.42;;;;;;;37.16;44.69;101214.19;1679116;85;20979;-77
2021/07/10 05:18:56;;;;;;;11.65;7.78;;;;;;;37.75;44.05;101216.92;1678758;84;21057;-77
2021/07/10 05:21:25;;;;;;;12.37;7.20;;;;;;;37.67;40.64;101214.85;1678910;85;20886;-75
2021/07/10 05:23:51;;;;;;;14.50;8.13;;;;;;;37.58;42.38;101211.82;1678651;85;21552;-76
2021/07/10 05:26:17;;;;;;;11.93;7.60;;;;;;;38.18;42.62;101219.66;1678715;85;21005;-78
2021/07/10 05:28:43;;;;;;;12.63;7.42;;;;;;;38.94;39.77;101218.70;1678836;85;20983;-73
2021/07/10 05:31:09;;;;;;;11.12;7.97;;;;;;;38.35;39.78;101219.67;1678653;85;20915;-86
2021/07/10 05:33:35;;;;;;;11.70;7.65;;;;;;;38.50;38.32;101219.55;1660813;85;20958;-85
2021/07/10 05:36:03;;;;;;;12.07;7.47;;;;;;;38.54;38.71;101216.67;1645494;86;21634;-86
2021/07/10 05:38:29;;;;;;;12.18;7.05;;;;;;;38.78;38.29;101215.27;1623592;85;21618;-84
2021/07/10 05:40:55;;;;;;;16.40;6.85;;;;;;;39.18;38.35;101212.27;1646868;87;20983;-82
2021/07/10 05:43:24;;;;;;;10.98;7.42;;;;;;;39.84;37.96;101207.88;1649980;87;20891;-81
2021/07/10 05:45:51;;;;;;;12.15;8.00;;;;;;;40.18;35.33;101207.25;1649718;87;21046;-81
2021/07/10 05:48:18;;;;;;;16.00;7.40;;;;;;;40.09;35.93;101209.93;1650086;87;21046;-80
2021/07/10 05:50:46;;;;;;;17.73;8.38;;;;;;;39.82;34.18;101210.34;1650103;87;21098;-86
2021/07/10 05:53:12;;;;;;;14.83;8.33;;;;;;;39.45;35.00;101208.36;1631475;87;21509;-80
2021/07/10 05:55:38;;;;;;;13.83;7.75;;;;;;;39.69;35.35;101206.05;1650063;87;21019;-81
2021/07/10 05:58:05;;;;;;;12.13;7.78;;;;;;;40.39;34.71;101211.47;1631282;87;21019;-82
2021/07/10 06:00:32;;;;;;;11.63;8.00;;;;;;;40.79;33.36;101208.95;1650060;87;20983;-81
2021/07/10 06:02:59;;;;;;;16.97;8.33;;;;;;;40.67;33.33;101209.77;1649701;87;21123;-86
2021/07/10 06:05:25;;;;;;;11.05;7.97;;;;;;;40.74;33.44;101206.72;1646490;85;21070;-84
2021/07/10 06:07:57;;;;;;;11.55;8.08;;;;;;;40.38;31.57;101202.17;1645777;87;21014;-86
2021/07/10 06:10:24;;;;;;;15.35;8.23;;;;;;;39.68;32.38;101192.57;1645693;87;21090;-85
2021/07/10 06:12:50;;;;;;;12.45;7.58;;;;;;;39.64;33.06;101194.69;1645904;87;21585;-82
2021/07/10 06:15:17;;;;;;;12.73;8.55;;;;;;;40.19;33.54;101192.70;1645870;87;21567;-78
2021/07/10 06:17:44;;;;;;;11.38;7.95;;;;;;;40.67;33.21;101190.61;1645694;86;21102;-80
2021/07/10 06:20:15;;;;;;;10.88;7.83;;;;;;;41.49;34.39;101189.19;1627066;87;21055;-78
2021/07/10 06:22:47;;;;;;;11.20;7.85;;;;;;;41.98;30.28;101194.25;1646018;87;21070;-82
2021/07/10 06:25:15;;;;;;;11.25;7.85;;;;;;;41.01;30.94;101189.86;1645960;86;21004;-78
2021/07/10 06:27:46;;;;;;;12.60;8.15;;;;;;;41.51;31.33;101188.12;1645543;87;22226;-78
2021/07/10 06:30:13;;;;;;;10.18;7.55;;;;;;;41.93;30.49;101190.59;1645686;87;21594;-86
2021/07/10 06:32:40;;;;;;;10.75;7.62;;;;;;;41.61;30.86;101185.50;1645679;86;21070;-80
2021/07/10 06:35:09;;;;;;;12.60;8.40;;;;;;;42.20;31.05;101192.77;1645815;87;21011;-83
2021/07/10 06:37:36;;;;;;;12.45;8.28;;;;;;;42.71;29.54;101191.52;1600387;89;21089;-85
2021/07/10 06:40:06;;;;;;;15.20;8.43;;;;;;;42.59;28.95;101184.72;1600380;89;21905;-79
2021/07/10 06:42:32;;;;;;;16.57;8.70;;;;;;;42.48;30.41;101185.79;1574563;91;21593;-82
2021/07/10 06:44:58;;;;;;;9.63;7.72;;;;;;;42.48;29.30;101187.20;1574347;91;21133;-81
2021/07/10 06:47:24;;;;;;;15.78;8.18;;;;;;;42.57;29.21;101190.88;1574369;91;21166;-77
2021/07/10 06:49:50;;;;;;;12.40;7.83;;;;;;;42.14;29.83;101189.75;1574588;91;21031;-81
2021/07/10 06:52:16;;;;;;;12.35;7.80;;;;;;;42.49;29.41;101183.13;1574658;91;21204;-83
2021/07/10 06:54:41;;;;;;;12.10;8.28;;;;;;;42.85;29.09;101193.15;1554128;91;21085;-85
2021/07/10 06:57:07;;;;;;;14.23;7.95;;;;;;;42.91;28.76;101193.95;1574433;91;21207;-79
2021/07/10 06:59:34;;;;;;;15.43;8.13;;;;;;;43.47;29.25;101186.39;1574427;91;21121;-83
2021/07/10 07:02:00;;;;;;;11.10;8.08;;;;;;;43.80;28.11;101182.91;1574745;91;21240;-78
2021/07/10 07:04:25;;;;;;;12.73;7.78;;;;;;;44.49;28.60;101181.86;1574274;89;21083;-80
2021/07/10 07:06:51;;;;;;;9.20;8.15;;;;;;;45.09;26.26;101182.23;1554360;91;21004;-84
2021/07/10 07:09:17;;;;;;;12.00;8.08;;;;;;;44.51;26.54;101178.69;1574405;91;21020;-84
2021/07/10 07:11:43;;;;;;;9.30;7.33;;;;;;;44.54;26.57;101180.56;1574529;91;20931;-82
2021/07/10 07:14:09;;;;;;;14.65;7.95;;;;;;;44.52;26.56;101176.63;1574307;91;21203;-80
2021/07/10 07:16:35;;;;;;;12.53;7.28;;;;;;;44.97;26.14;101176.17;1574479;91;21137;-81
2021/07/10 07:19:02;;;;;;;14.20;7.58;;;;;;;44.81;25.38;101174.56;1574280;91;20911;-79
2021/07/10 07:21:28;;;;;;;9.38;7.08;;;;;;;44.55;25.78;101177.08;1574301;91;21624;-79
2021/07/10 07:23:55;;;;;;;9.40;7.00;;;;;;;45.45;25.79;101171.80;1564578;89;21152;-79
2021/07/10 07:26:22;;;;;;;20.35;7.42;;;;;;;45.48;24.47;101172.27;1574525;91;21026;-84
2021/07/10 07:28:48;;;;;;;10.43;6.65;;;;;;;44.90;23.87;101174.48;1574373;91;21130;-81
2021/07/10 07:31:14;;;;;;;11.00;6.30;;;;;;;44.54;24.37;101176.30;1574845;91;21054;-82
2021/07/10 07:33:41;;;;;;;9.98;7.17;;;;;;;44.58;24.97;101177.53;1574777;91;21117;-79
2021/07/10 07:36:09;;;;;;;12.43;7.00;;;;;;;44.94;24.58;101175.08;1574967;91;20939;-80
2021/07/10 07:38:36;;;;;;;9.60;6.97;;;;;;;44.31;23.09;101172.77;1578586;89;21112;-81
2021/07/10 07:41:04;;;;;;;9.18;5.75;;;;;;;43.66;24.95;101180.73;1614756;88;21084;-78
2021/07/10 07:43:30;;;;;;;9.83;6.17;;;;;;;43.80;24.53;101175.80;1628106;87;20992;-81
2021/07/10 07:45:56;;;;;;;10.38;5.78;;;;;;;43.48;24.27;101181.52;1628110;87;21000;-82
2021/07/10 07:48:22;;;;;;;8.40;5.50;;;;;;;43.00;24.37;101179.77;1627903;87;20925;-79
2021/07/10 07:50:48;;;;;;;8.53;6.05;;;;;;;42.84;24.06;101178.81;1629129;85;20897;-79
2021/07/10 07:53:16;;;;;;;10.85;5.80;;;;;;;42.69;24.89;101176.41;1627930;87;21950;-82
2021/07/10 07:55:43;;;;;;;11.15;5.45;;;;;;;42.92;24.25;101179.91;1627786;87;21056;-78
2021/07/10 07:58:10;;;;;;;9.75;5.80;;;;;;;42.22;23.66;101173.27;1627865;88;21524;-78
2021/07/10 08:00:36;;;;;;;14.23;6.03;;;;;;;41.75;24.74;101174.27;1627972;87;21127;-78
2021/07/10 08:03:02;;;;;;;8.18;5.87;;;;;;;41.53;23.88;101172.86;1628107;87;21076;-83
2021/07/10 08:05:29;;;;;;;8.63;5.80;;;;;;;41.64;25.05;101166.80;1634314;85;21140;-82
2021/07/10 08:07:55;;;;;;;11.43;5.30;;;;;;;41.67;24.83;101164.46;1601215;89;21019;-83
2021/07/10 08:10:24;;;;;;;10.43;5.10;;;;;;;41.78;24.87;101169.72;1574893;90;20903;-80
2021/07/10 08:12:50;;;;;;;13.62;5.12;;;;;;;40.98;23.72;101170.97;1594062;89;21050;-85
2021/07/10 08:15:19;;;;;;;12.33;5.35;;;;;;;40.91;25.23;101170.58;1594071;90;21104;-82
2021/07/10 08:17:47;;;;;;;10.13;5.45;;;;;;;40.82;24.36;101166.25;1594516;88;21121;-80
2021/07/10 08:20:15;;;;;;;8.63;4.83;;;;;;;40.48;24.81;101169.81;1594263;90;21062;-81
2021/07/10 08:22:43;;;;;;;7.67;4.85;;;;;;;40.57;24.42;101171.33;1598713;87;21045;-84
2021/07/10 08:25:10;;;;;;;8.65;5.62;;;;;;;40.59;24.72;101165.98;1601040;88;21430;-86
2021/07/10 08:27:37;;;;;;;8.08;5.47;;;;;;;40.32;24.85;101163.65;1600857;88;21050;-80
2021/07/10 08:30:07;;;;;;;14.18;5.83;;;;;;;40.35;25.86;101169.80;1601026;88;21982;-82
2021/07/10 08:32:33;;;;;;;10.20;5.20;;;;;;;40.04;25.11;101159.69;1593696;88;21131;-82
2021/07/10 08:34:59;;;;;;;7.47;4.53;;;;;;;40.16;25.90;101158.27;1593465;88;21002;-87
2021/07/10 08:37:25;;;;;;;10.90;4.75;;;;;;;40.99;25.77;101159.82;1600678;89;20981;-82
2021/07/10 08:39:51;;;;;;;10.23;5.45;;;;;;;41.08;24.13;101152.85;1600703;89;21021;-80
2021/07/10 08:42:18;;;;;;;9.18;4.17;;;;;;;41.09;24.44;101151.59;1600743;89;21147;-80
2021/07/10 08:44:51;;;;;;;8.78;4.40;;;;;;;40.99;23.76;101145.68;1600967;89;21230;-81
2021/07/10 08:47:18;;;;;;;7.55;5.20;;;;;;;40.96;23.81;101146.59;1600729;89;21628;-86
2021/07/10 08:49:44;;;;;;;12.50;5.85;;;;;;;41.12;24.09;101145.02;1616835;87;21114;-82
2021/07/10 08:52:11;;;;;;;10.78;4.65;;;;;;;40.65;24.08;101150.06;1633839;87;21521;-81
2021/07/10 08:54:38;;;;;;;14.30;7.45;;;;;;;40.66;24.65;101135.33;1633834;87;21585;-79
2021/07/10 08:57:05;;;;;;;11.40;5.37;;;;;;;40.52;23.79;101148.66;1633783;87;21074;-83
2021/07/10 08:59:31;;;;;;;8.75;4.72;;;;;;;39.98;23.90;101141.09;1633912;87;21059;-79
2021/07/10 09:01:57;;;;;;;11.18;4.60;;;;;;;39.45;24.79;101144.25;1633864;87;21070;-80
2021/07/10 09:04:24;;;;;;;12.80;5.95;;;;;;;38.67;25.95;101139.27;1633889;87;22006;-77
2021/07/10 09:06:53;;;;;;;9.30;4.97;;;;;;;38.17;26.72;101153.30;1624851;87;21841;-79
2021/07/10 09:09:19;;;;;;;31.23;14.53;;;;;;;37.61;27.11;101149.69;1645719;87;21094;-86
2021/07/10 09:12:00;;;;;;;28.67;13.70;;;;;;;36.87;27.49;101147.03;1645928;86;20867;-80
2021/07/10 09:14:31;;;;;;;16.90;8.25;;;;;;;36.59;29.08;101147.69;1626921;88;21015;-84
2021/07/10 09:17:18;;;;;;;8.60;4.58;;;;;;;36.78;29.75;101139.16;1627078;88;21118;-81
2021/07/10 09:19:46;;;;;;;11.12;5.50;;;;;;;37.26;28.67;101146.33;1626873;88;21125;-82
2021/07/10 09:22:26;;;;;;;12.43;4.72;;;;;;;37.03;28.56;101145.75;1596299;88;21032;-80
2021/07/10 09:24:52;;;;;;;16.52;7.90;;;;;;;37.50;28.75;101143.69;1518282;94;21072;-80
2021/07/10 09:27:18;;;;;;;16.23;7.35;;;;;;;36.98;28.61;101138.59;1500195;94;21589;-80
2021/07/10 09:29:46;;;;;;;40.90;17.30;;;;;;;36.19;29.26;101136.88;1518937;94;20962;-79
2021/07/10 09:32:19;;;;;;;19.30;7.58;;;;;;;35.55;30.90;101140.68;1550115;91;21217;-78
2021/07/10 09:34:56;;;;;;;12.23;4.85;;;;;;;36.30;30.11;101129.09;1557693;90;21077;-81
2021/07/10 09:37:26;;;;;;;8.00;4.35;;;;;;;37.17;28.74;101127.83;1594484;89;21601;-81
2021/07/10 09:40:03;;;;;;;15.00;5.10;;;;;;;38.04;29.43;101128.48;1577266;90;21646;-83
2021/07/10 09:42:44;;;;;;;15.53;4.97;;;;;;;38.50;28.76;101118.75;1543484;91;21224;-87
2021/07/10 09:45:23;;;;;;;7.40;4.10;;;;;;;37.83;27.38;101122.69;1514609;92;21232;-80
2021/07/10 09:47:49;;;;;;;7.65;4.05;;;;;;;37.40;27.36;101108.09;1507515;95;21091;-82
2021/07/10 09:50:22;;;;;;;13.83;4.85;;;;;;;37.07;28.53;101114.80;1496218;94;21113;-83
2021/07/10 09:52:48;;;;;;;8.88;5.10;;;;;;;36.58;28.55;101111.00;1495981;96;21708;-83
2021/07/10 09:55:17;;;;;;;12.68;6.10;;;;;;;36.50;29.90;101114.49;1496138;96;21217;-83
2021/07/10 09:57:46;;;;;;;16.05;6.15;;;;;;;36.56;28.81;101112.03;1495947;96;21229;-81
2021/07/10 10:00:16;;;;;;;10.23;5.03;;;;;;;36.65;29.27;101107.27;1478007;96;21034;-81
2021/07/10 10:02:48;;;;;;;9.95;4.30;;;;;;;37.13;30.08;101106.04;1510302;94;21058;-86
2021/07/10 10:05:17;;;;;;;6.27;3.93;;;;;;;37.43;29.13;101101.59;1516887;93;21151;-82
2021/07/10 10:07:48;;;;;;;9.48;4.58;;;;;;;37.10;28.75;101098.47;1553661;90;21102;-81
2021/07/10 10:10:35;;;;;;;6.42;3.87;;;;;;;36.64;29.43;101093.05;1483821;96;21849;-81
2021/07/10 10:13:11;;;;;;;11.03;4.25;;;;;;;36.72;30.44;101098.73;1484885;96;21217;-80
2021/07/10 10:15:48;;;;;;;9.33;4.72;;;;;;;37.14;29.10;101094.34;1484645;96;21640;-83
2021/07/10 10:18:17;;;;;;;12.35;5.47;;;;;;;37.15;28.81;101094.55;1484985;95;21749;-83
2021/07/10 10:20:45;;;;;;;11.00;4.22;;;;;;;37.15;30.26;101096.54;1484908;96;21074;-83
2021/07/10 10:23:12;;;;;;;10.82;4.85;;;;;;;37.23;29.80;101097.99;1488058;95;21168;-80
2021/07/10 10:25:39;;;;;;;8.53;4.08;;;;;;;37.01;29.23;101093.42;1484977;96;21098;-83
2021/07/10 10:28:18;;;;;;;10.55;4.08;;;;;;;36.71;30.09;101092.33;1484753;96;21231;-82
2021/07/10 10:30:40;;;;;;;8.88;4.12;;;;;;;36.35;30.38;101090.07;1487616;94;21617;-79
2021/07/10 10:33:06;;;;;;;10.08;4.37;;;;;;;36.66;30.05;101092.02;1485104;96;20967;-81
2021/07/10 10:35:32;;;;;;;6.62;4.35;;;;;;;36.87;28.98;101095.84;1484770;95;21989;-81
2021/07/10 10:37:59;;;;;;;10.32;4.33;;;;;;;36.90;28.82;101091.38;1537744;92;21013;-81
2021/07/10 10:40:26;;;;;;;7.45;4.30;;;;;;;36.63;29.55;101085.86;1537597;93;21131;-80
2021/07/10 10:42:56;;;;;;;11.18;4.70;;;;;;;36.78;30.79;101087.97;1537727;93;21099;-80
2021/07/10 10:45:38;;;;;;;12.18;4.80;;;;;;;36.82;30.62;101087.28;1537858;93;21068;-78
2021/07/10 10:48:06;;;;;;;11.13;5.27;;;;;;;36.09;30.40;101084.69;1534517;93;22175;-82
2021/07/10 10:50:36;;;;;;;13.78;4.80;;;;;;;35.71;32.29;101089.00;1566275;91;21490;-79
2021/07/10 10:53:04;;;;;;;10.40;5.33;;;;;;;35.56;33.54;101083.99;1566472;90;21162;-81
2021/07/10 10:55:36;;;;;;;10.03;4.47;;;;;;;35.52;32.92;101074.81;1566390;91;21400;-80
2021/07/10 10:58:17;;;;;;;8.05;4.45;;;;;;;35.48;32.01;101079.86;1566558;91;21071;-77
2021/07/10 11:00:48;;;;;;;7.57;4.20;;;;;;;35.54;32.25;101077.39;1566617;90;21952;-81
2021/07/10 11:03:19;;;;;;;12.73;4.67;;;;;;;35.49;31.59;101072.23;1471828;97;21597;-83
2021/07/10 11:05:56;;;;;;;8.95;4.08;;;;;;;35.60;32.13;101071.52;1526492;93;21149;-83
2021/07/10 11:08:35;;;;;;;16.15;4.10;;;;;;;35.87;31.56;101065.14;1507580;94;21087;-85
2021/07/10 11:11:06;;;;;;;7.40;4.30;;;;;;;36.15;31.19;101065.33;1487841;95;21121;-80
2021/07/10 11:13:39;;;;;;;7.45;4.35;;;;;;;36.43;31.03;101062.68;1507549;93;21300;-81
2021/07/10 11:16:16;;;;;;;8.13;4.42;;;;;;;36.85;31.92;101060.34;1505352;95;21094;-82
2021/07/10 11:19:07;;;;;;;6.83;4.72;;;;;;;37.13;30.01;101060.45;1507420;93;21636;-80